Weather observations for the past three days for
COLEMAN
Metric (Imperial)
Date Time (cdt) Wind (kph) Vis. (km) Weather Sky Cond. Temperature (ºC) Relative Humidity Wind Chill (°C) Heat Index (°C) Pressure Precipitation (cm)
Air Dwpt 6 hour altimeter (cm) sea level (mb) 1 hr 3 hr 6 hr
Max. Min.
10 13:15 S 15 16.09 Partly Cloudy SCT048 31.8 14.9 36% 31 76.07 0.0
10 12:55 S 20 16.09 Fair CLR 31.6 16.3 31.6 18.3 40% 32 76.05 0.0
10 12:35 S 17 G 31 16.09 Fair CLR 30.5 16.5 43% 31 76.05 0.0
10 12:15 S 26 G 33 16.09 Fair CLR 30.8 16.7 43% 31 76.05 0.0
10 11:55 S 19 G 28 16.09 Fair CLR 30.4 16.9 44% 31 76.05 0.0
10 11:35 S 19 G 31 16.09 Fair CLR 29.7 16.7 46% 30 76.05 0.0
10 11:15 S 17 G 26 16.09 Fair CLR 29.8 17 46% 30 76.07 0.0
10 10:55 S 13 16.09 Fair CLR 28.8 17.1 49% 29 76.07 0.0
10 10:35 S 13 16.09 Fair CLR 28.3 17.2 51% 29 76.07 0.0
10 10:15 SE 15 16.09 Fair CLR 27.5 18 56% 28 76.07 0.0
10 09:55 SE 17 16.09 Fair CLR 25.8 17.7 61% 27 76.07 0.0
10 09:35 SE 7 16.09 Fair CLR 24.8 17.9 66% 26 76.07 0.0
10 09:15 E 13 16.09 Fair CLR 24.1 17.9 68% 25 76.1 0.0
10 08:55 E 9 16.09 Fair CLR 23 17.9 73% 76.1 0.0
10 08:35 E 13 16.09 Fair CLR 22 17.6 76% 76.1 0.0
10 07:55 NE 11 16.09 Fair CLR 20.3 17.7 85% 76.05 0.0
10 07:35 NE 11 16.09 Fair CLR 19.3 17.5 89% 76.02 0.0
10 07:15 NE 26 16.09 Fair CLR 18.4 16.7 90% 75.97 0.0
10 06:55 SW 6 16.09 Fair CLR 18.6 16.8 23.5 18.6 89% 75.84 0.0
10 06:35 S 7 16.09 Fair CLR 18.7 16.8 89% 75.84 0.0
10 06:15 S 9 16.09 Fair CLR 18.6 16.8 89% 75.84 0.0
10 05:55 S 7 16.09 Fair CLR 18.8 17 89% 75.82 0.0
10 05:35 S 11 16.09 Fair CLR 18.9 16.7 87% 75.82 0.0
10 05:15 SW 6 16.09 Fair CLR 19.3 16.9 86% 75.82 0.0
10 04:55 S 7 16.09 Fair CLR 19.7 16.9 84% 75.79 0.0
10 04:35 S 11 16.09 Fair CLR 20.1 16.7 81% 75.77 0.0
10 04:15 S 9 16.09 Fair CLR 20.4 16.7 79% 75.77 0.0
10 03:55 S 13 16.09 Fair CLR 20.7 16.7 78% 75.77 0.0
10 03:35 S 13 16.09 Fair CLR 21.1 16.7 76% 75.77 0.0
10 03:15 S 15 16.09 Fair CLR 21.5 16.7 74% 75.77 0.0
10 02:55 S 15 16.09 Fair CLR 21.7 16.5 72% 75.77 0.0
10 02:35 S 13 16.09 Fair CLR 22 16.5 71% 75.77 0.0
10 02:15 S 15 16.09 Fair CLR 22.2 16.3 69% 75.77 0.0
10 01:55 S 15 16.09 Fair CLR 22.3 16.2 69% 75.79 0.0
10 01:35 S 15 16.09 Fair CLR 22.6 16.2 67% 75.79 0.0
10 01:15 S 19 G 26 16.09 Fair CLR 23.2 16.2 65% 75.79 0.0
10 00:55 S 20 16.09 Fair CLR 23.5 16.1 32.6 22.5 63% 75.79 0.0
10 00:35 S 20 16.09 Fair CLR 23.5 15.6 61% 75.79 0.0
10 00:15 S 17 16.09 Fair CLR 23.6 15.5 61% 75.79 0.0
09 23:55 S 15 16.09 Fair CLR 23.5 15.2 60% 75.79 0.0
09 23:35 S 13 16.09 Fair CLR 22.7 14.7 61% 75.79 0.0
09 22:55 Calm 16.09 Fair CLR 23.3 14.2 57% 75.82 0.0
09 22:35 S 7 16.09 Fair CLR 24 14.4 55% 25 75.79 0.0
09 22:15 S 7 16.09 Fair CLR 24.3 14.5 54% 26 75.79 0.0
09 21:55 S 9 16.09 Fair CLR 25 14.6 53% 26 75.77 0.0
09 21:35 S 11 16.09 Fair CLR 25.6 14.6 51% 26 75.77 0.0
09 21:15 S 11 16.09 Fair CLR 26.4 14.6 48% 27 75.77 0.0
09 20:55 S 13 16.09 Fair CLR 27.3 13.6 43% 27 75.72 0.0
09 20:35 S 9 16.09 Fair CLR 27.7 11.8 37% 27 75.72 0.0
09 20:15 S 11 16.09 Fair CLR 29.3 12.2 35% 28 75.69 0.0
09 19:55 S 15 16.09 Fair CLR 30.5 12.7 34% 30 75.69 0.0
09 19:35 S 15 16.09 Fair CLR 31.6 11.2 28% 30 75.69 0.0
09 19:15 SE 15 16.09 Fair CLR 32.2 10.9 27% 31 75.67 0.0
09 18:55 S 9 16.09 Fair CLR 32.6 11 33.7 30.1 27% 31 75.67 0.0
09 18:35 SE 13 16.09 Fair CLR 32.9 11.1 26% 31 75.67 0.0
09 18:15 S 13 16.09 Fair CLR 33.4 10.9 25% 32 75.67 0.0
09 17:55 S 15 16.09 Fair CLR 33.3 11.3 26% 32 75.67 0.0
09 17:35 S 7 16.09 Fair CLR 33.4 10.7 25% 32 75.67 0.0
09 17:15 S 17 16.09 Fair CLR 33.3 10.8 25% 32 75.67 0.0
09 16:55 S 11 16.09 Fair CLR 33.1 11 26% 32 75.69 0.0
09 16:35 S 7 16.09 Fair CLR 33.1 12 28% 32 75.69 0.0
09 16:15 SW 13 16.09 Fair CLR 33.1 10.8 25% 32 75.72 0.0
09 15:55 SE 15 16.09 Fair CLR 32.9 11.5 27% 31 75.74 0.0
09 15:35 Calm 16.09 Fair CLR 32.6 10.6 26% 31 75.77 0.0
09 15:15 S 17 16.09 Fair CLR 32.5 11.7 28% 31 75.79 0.0
09 14:55 SE 11 16.09 Fair CLR 32.3 11.9 29% 31 75.79 0.0
09 14:35 S 17 16.09 Fair CLR 32.6 12.5 29% 31 75.82 0.0
09 14:15 S 15 16.09 Fair CLR 32.2 12.3 30% 31 75.84 0.0
09 13:55 SW 15 16.09 Fair CLR 31.8 12.4 30% 31 75.87 0.0
09 13:35 Calm 16.09 Fair CLR 31.1 12.8 33% 30 75.87 0.0
09 12:55 Calm 16.09 Fair CLR 30.2 11.6 30.4 17.5 32% 29 75.92 0.0
09 12:35 SW 9 16.09 Fair CLR 29.8 12.2 34% 29 75.95 0.0
09 12:15 S 13 16.09 Fair CLR 29.7 12.5 35% 29 75.95 0.0
09 11:55 Calm 16.09 Fair CLR 28.6 13.2 39% 28 75.95 0.0
09 11:35 S 11 16.09 Fair CLR 28.8 13.8 40% 28 75.95 0.0
09 11:15 W 13 16.09 Fair CLR 28 14.2 43% 28 75.97 0.0
09 10:55 W 11 16.09 Fair CLR 27.3 14.8 46% 27 75.97 0.0
09 10:35 SW 15 16.09 Fair CLR 26.8 16.2 52% 27 75.97 0.0
09 10:15 SW 17 16.09 Fair CLR 26.1 16.9 57% 27 75.97 0.0
09 09:55 W 15 16.09 Fair CLR 25.4 17.3 61% 26 75.97 0.0
09 09:35 W 11 16.09 Fair CLR 24.4 17.4 65% 25 75.97 0.0
09 09:15 SW 13 16.09 Fair CLR 23.5 17.6 70% 75.97 0.0
09 08:55 SW 15 16.09 Fair CLR 22.5 17.5 73% 75.95 0.0
09 08:35 W 11 16.09 Fair CLR 22.1 17.6 76% 75.95 0.0
09 08:15 SW 11 16.09 Fair CLR 20.9 17.5 81% 75.95 0.0
09 07:55 W 11 16.09 Fair CLR 19.5 16.5 83% 75.95 0.0
09 07:35 SW 9 16.09 Fair CLR 18 14.7 81% 75.92 0.0
09 07:15 SW 9 16.09 Fair CLR 17.6 14 80% 75.92 0.0
09 06:55 SW 9 16.09 Fair CLR 17.5 14.3 19.5 17.5 82% 75.9 0.0
09 06:35 SW 9 16.09 Fair CLR 17.6 14.7 83% 75.92 0.0
09 06:15 SW 9 16.09 Fair CLR 17.5 15 85% 75.9 0.0
09 05:55 SW 7 16.09 Partly Cloudy SCT021 17.5 15.2 86% 75.9 0.0
09 05:35 S 9 16.09 Partly Cloudy SCT021 17.6 15.2 86% 75.9 0.0
09 05:15 SE 6 16.09 Fair CLR 18.3 15.5 84% 75.9 0.0
09 04:35 S 11 16.09 Fair CLR 19 16.5 86% 75.92 0.0
09 04:15 S 7 16.09 Fair CLR 19 16.1 83% 75.95 0.0
09 03:55 E 13 16.09 Fair CLR 19.2 16.3 83% 75.95 0.0
09 03:35 SE 26 16.09 Overcast SCT017 BKN036 OVC120 19.2 16.5 84% 75.92 0.0
09 03:15 NE 22 G 31 11.27 Thunderstorm in Vicinity SCT003 BKN008 OVC019 18.9 18 95% 76.02 0.0
09 02:55 N 11 8.05 Thunderstorm Fog/Mist BKN006 BKN042 BKN060 18.8 18 95% 76.02 0.0
09 02:35 Calm 8.05 Thunderstorm in Vicinity Fog/Mist OVC004 19.1 18.3 95% 76 0.0
09 02:15 N 17 8.05 Fog/Mist OVC004 19 18 94% 76.02 0.0
09 01:55 SW 6 8.05 Fog/Mist SCT004 18.8 17.8 94% 75.87 0.0
09 01:35 S 7 11.27 Fair CLR 18.8 17.6 93% 75.87 0.0
09 01:15 S 7 11.27 Fair CLR 18.7 17.5 93% 75.82 0.0
09 00:55 Calm 8.05 Fog/Mist CLR 18.8 17.5 26 18.7 92% 75.82 0.0
09 00:35 SE 6 11.27 Fair CLR 19.1 17.5 91% 75.82 0.0
09 00:15 S 6 11.27 Fair CLR 19.2 17.5 90% 75.82 0.0
08 23:55 SE 6 16.09 Fair CLR 19.6 17.5 88% 75.82 0.0
08 23:35 S 7 16.09 Fair CLR 20.3 17.9 86% 75.87 0.0
08 23:15 S 7 16.09 Fair CLR 20.6 18 85% 75.84 0.0
08 22:55 S 9 16.09 Fair CLR 21.1 18 83% 75.84 0.0
08 22:35 S 9 16.09 Partly Cloudy SCT025 21.6 18 80% 75.84 0.0
08 22:15 SE 11 16.09 Mostly Cloudy BKN025 22.1 18.1 78% 75.84 0.0
08 21:55 SE 9 16.09 Mostly Cloudy BKN029 BKN036 22.5 18.2 77% 75.82 0.0
08 21:35 S 9 16.09 Partly Cloudy SCT027 SCT034 22.5 18.1 76% 75.79 0.0
08 21:15 SE 11 16.09 Partly Cloudy SCT025 SCT038 22.7 18.2 76% 75.77 0.0
08 20:55 SE 13 16.09 Partly Cloudy SCT027 SCT038 23.2 18.3 74% 75.72 0.0
08 20:35 SE 7 16.09 Mostly Cloudy SCT025 BKN043 23.5 18.1 72% 75.72 0.0
08 20:15 S 6 16.09 Mostly Cloudy SCT023 SCT029 BKN043 24 18.1 70% 25 75.72 0.0
08 19:55 S 11 16.09 Mostly Cloudy BKN023 BKN029 24.4 18.1 68% 25 75.72 0.0
08 19:35 SE 11 16.09 Mostly Cloudy BKN025 BKN032 24.5 18.1 68% 25 75.69 0.0
08 19:15 S 13 16.09 Partly Cloudy SCT026 SCT031 25 18 65% 26 75.69 0.0
08 18:55 S 19 16.09 Partly Cloudy SCT048 26 17.7 27.6 22.8 60% 27 75.67 0.0
08 18:35 S 19 16.09 Partly Cloudy SCT050 26.6 17.7 58% 27 75.67 0.0
08 17:55 SW 11 16.09 Overcast BKN030 BKN036 OVC044 25.5 17.6 62% 26 75.69 0.0
08 17:35 SW 11 16.09 Overcast OVC030 25.7 17.4 60% 27 75.69 0.0
08 17:15 S 13 16.09 Overcast OVC030 26.4 17.2 57% 27 75.69 0.0
08 16:55 S 17 16.09 Overcast BKN032 OVC037 27.5 17.3 54% 28 75.69 0.0
08 16:35 S 20 16.09 Mostly Cloudy BKN030 BKN037 26.2 16.9 57% 27 75.69 0.0
08 16:15 S 17 16.09 Partly Cloudy SCT030 SCT039 27.5 17 53% 28 75.69 0.0
08 15:55 SE 17 16.09 Partly Cloudy SCT037 26.3 16.9 56% 27 75.72 0.0
08 15:35 SE 20 G 30 16.09 Fair CLR 26.9 16.6 53% 28 75.77 0.0
08 15:15 S 17 16.09 Fair CLR 26.8 16.4 53% 27 75.77 0.0
08 14:55 S 15 16.09 Fair CLR 26.4 16.3 54% 27 75.79 0.0
08 14:35 Calm 16.09 Fair CLR 25.7 16.3 56% 27 75.82 0.0
08 14:15 SW 7 16.09 Fair CLR 25 15.9 57% 26 75.84 0.0
08 13:55 SW 11 16.09 Fair CLR 24.9 15.6 56% 26 75.87 0.0
08 13:35 SE 11 16.09 Fair CLR 23.9 15.2 58% 25 75.9 0.0
08 13:15 S 11 16.09 Partly Cloudy SCT024 23.1 14.9 60% 75.92 0.0
08 12:55 S 13 16.09 Partly Cloudy SCT024 22.7 14.5 23 13.5 60% 75.95 0.0
08 12:35 S 9 16.09 Fair CLR 22.5 14.3 60% 75.95 0.0
08 12:15 S 7 16.09 Mostly Cloudy BKN015 21.5 14.1 63% 76 0.0
08 11:55 S 6 16.09 Overcast OVC015 20.2 13.7 66% 76.02 0.0
08 11:35 Calm 16.09 Overcast OVC015 18.8 13 69% 76.05 0.0
08 11:15 SW 9 16.09 Overcast OVC013 18.3 13.1 72% 76.07 0.0
08 10:55 Calm 16.09 Overcast OVC013 18.4 12.7 70% 76.05 0.0
08 10:35 Calm 16.09 Overcast OVC013 17.1 12.3 74% 76.07 0.0
08 10:15 S 6 16.09 Overcast OVC011 16.6 12.4 76% 76.1 0.0
08 09:55 S 9 16.09 Overcast OVC011 15.9 12.2 79% 76.1 0.0
08 09:35 S 9 16.09 Overcast OVC013 15.6 11.9 79% 76.1 0.0
08 09:15 SE 9 16.09 Overcast OVC015 15.6 11.7 78% 76.12 0.0
08 08:55 SE 9 16.09 Overcast OVC015 15.2 12 81% 76.12 0.0
08 08:35 SE 7 16.09 Overcast OVC015 14.6 12 85% 76.12 0.0
08 08:15 E 7 16.09 Overcast OVC015 14.5 12.6 88% 76.12 0.0
08 07:55 Calm 16.09 Overcast OVC015 13.8 12.1 90% 76.12 0.0
08 07:35 Calm 16.09 Overcast OVC015 13.6 12 90% 76.15 0.0
08 07:15 Calm 11.27 Overcast OVC017 13.5 11.7 89% 76.17 0.0
08 06:55 Calm 16.09 Overcast OVC019 13.5 11.8 14.2 11.5 90% 76.15 0.0
08 06:35 Calm 16.09 Overcast OVC019 13.5 12 91% 76.17 0.0
08 06:15 Calm 16.09 Overcast OVC019 13.1 11.8 92% 76.15 0.0
08 05:55 Calm 16.09 Overcast OVC019 13 11.6 91% 76.17 0.0
08 05:35 Calm 16.09 Overcast OVC023 12.5 11.2 92% 76.15 0.0
08 05:15 NE 6 16.09 Mostly Cloudy BKN025 BKN029 12 10.8 92% 76.15 0.0
08 04:55 NE 6 16.09 Partly Cloudy SCT029 11.6 10.5 93% 76.15 0.0
08 04:35 N 6 16.09 Fair CLR 11.6 10.3 92% 76.15 0.0
08 04:15 N 9 16.09 Fair CLR 12.5 10.8 89% 76.15 0.0
08 03:55 Calm 16.09 Fair CLR 12.5 10.7 89% 76.12 0.0
08 03:35 Calm 16.09 Fair CLR 12.8 10.9 88% 76.12 0.0
08 03:15 Calm 16.09 Fair CLR 13.5 11.4 87% 76.12 0.0
08 02:55 SE 6 16.09 Partly Cloudy SCT036 13.5 11.5 88% 76.1 0.0
08 02:35 Calm 16.09 Partly Cloudy SCT036 SCT042 SCT085 13.5 11.5 88% 76.17 0.0
08 02:15 S 11 16.09 Mostly Cloudy BKN038 BKN060 BKN075 14.2 12 87% 76.15 0.0
08 01:55 Calm 16.09 Overcast BKN036 BKN050 OVC075 14 12 88% 76.17 0.0
08 01:35 Calm 16.09 Overcast SCT038 SCT050 OVC075 13.8 12 89% 76.23 0.0
08 01:15 N 6 16.09 Overcast SCT038 SCT065 OVC075 13.6 11.6 88% 76.2 0.0
08 00:55 Calm 16.09 Mostly Cloudy SCT048 BKN075 13.4 11.3 17 13.3 87% 76.23 0.0
08 00:15 Calm 16.09 Mostly Cloudy BKN046 13.8 11.5 86% 76.23 0.0
07 23:55 Calm 16.09 Partly Cloudy SCT046 13.5 10.7 83% 76.23 0.0
07 23:35 Calm 16.09 Partly Cloudy SCT044 13.8 11.1 84% 76.23 0.0
07 23:15 Calm 16.09 Mostly Cloudy BKN044 14.3 11.6 84% 76.25 0.0
07 22:55 Calm 16.09 Mostly Cloudy SCT042 BKN048 BKN060 14.4 11.5 83% 76.28 0.0
07 22:35 Calm 16.09 Mostly Cloudy SCT046 BKN060 BKN070 14.6 11.5 82% 76.28 0.0
07 22:15 S 7 16.09 Overcast OVC048 15 11.5 80% 76.28 0.0
07 21:55 S 6 16.09 Overcast OVC050 14.7 11.2 80% 76.23 0.0
07 21:35 S 7 16.09 Overcast BKN050 OVC060 14.7 11.3 80% 76.23 0.0
07 21:15 Calm 16.09 Overcast BKN060 OVC070 14.6 11.2 80% 76.2 0.0
07 20:55 S 7 16.09 Mostly Cloudy BKN060 BKN070 BKN080 15 11.3 79% 76.2 0.0
07 20:35 S 9 16.09 Mostly Cloudy BKN070 BKN075 BKN090 15.1 11.2 78% 76.17 0.0
07 20:15 S 6 16.09 Overcast BKN070 OVC080 15.3 11.2 77% 76.17 0.0
07 19:55 S 9 16.09 Partly Cloudy SCT080 15.5 11.4 77% 76.17 0.0
07 19:35 S 11 16.09 Partly Cloudy SCT080 15.8 11 73% 76.17 0.0
07 19:15 S 9 16.09 Mostly Cloudy BKN090 16.4 11.2 72% 76.17 0.0
07 18:55 S 11 16.09 Mostly Cloudy BKN090 17.1 11 19.7 17.1 68% 76.2 0.0
07 18:35 S 13 16.09 Partly Cloudy SCT100 17.9 10.9 64% 76.23 0.0
07 18:15 S 13 16.09 Fair CLR 18.4 10.3 59% 76.23 0.0
07 17:55 S 15 16.09 Partly Cloudy SCT100 18.1 10.9 63% 76.23 0.0
07 17:35 S 20 16.09 Partly Cloudy SCT110 18.9 9.5 55% 76.28 0.0
07 17:15 SE 15 16.09 Mostly Cloudy BKN100 19.6 8.5 49% 76.28 0.0
07 16:55 SE 15 16.09 Mostly Cloudy BKN110 19.3 8.5 50% 76.23 0.0
07 16:35 E 13 16.09 Partly Cloudy SCT120 19.1 8.1 49% 76.28 0.0
07 16:15 SE 17 16.09 Partly Cloudy SCT120 18.9 7.5 48% 76.33 0.0
07 15:55 SE 17 16.09 Fair CLR 18.8 8.3 51% 76.35 0.0
07 15:35 SE 15 16.09 Partly Cloudy SCT120 17.7 8.4 55% 76.35 0.0
07 14:55 SE 13 16.09 Mostly Cloudy BKN110 17.5 8.5 56% 76.4 0.0
07 14:35 SE 17 16.09 Mostly Cloudy BKN110 17.7 8.3 54% 76.38 0.0
07 14:15 SE 17 16.09 Partly Cloudy SCT110 18.2 8.1 52% 76.38 0.0
07 13:55 SE 15 16.09 Fair CLR 18.6 8.1 51% 76.38 0.0
07 13:35 SE 17 16.09 Fair CLR 18.5 8.2 51% 76.4 0.0
Date Time (cdt) Wind (kph) Vis. (km) Weather Sky Cond. Air Dwpt Max. Min. Relative Humidity Wind Chill (°C) Heat Index (°C) altimeter (cm) sea level (mb) 1 hr 3 hr 6 hr
6 hour
Temperature (ºC) Pressure Precipitation (cm)